OITTOIFM

Guest
Details From OITT - Tabriz Intl
To OIFM - Esfahan Shahid Beheshti Intl
Flight Number -
Tags Generated
Created
Modified
Stats Distance 425 nm / 787 km
Max Altitude 0 ft / 0 m
Waypoints 3
Social Downloads 1
Likes 0
Share VATSIM

Download

Looking for another format? Having issues loading an existing format? Contact us
Advertisement - Login to hide

Notes

Generated

Route

OITT ISN OIFM

ID Type Via Altitude Latitude Longitude Leg Dist Tot Dist Heading (true) Name
O OITT APT - 0 ft / 0 m 38.14227˚ 46.21870˚ - 0 nm - -
ISN VOR - 0 ft / 0 m 32.74697˚ 51.82800˚ 424 nm 424 nm 138° / 141° ESFAHAN VOR-DME
O OIFM APT - 0 ft / 0 m 32.74469˚ 51.83886˚ 0 nm 425 nm 104° / 104° -

Altitude Profile

Advertisement - Login to hide

Weather


0- 5 10 15 20 25 30 35+ Temperature / ° C

Clouds and Precipitation
Forecast for 2017-12-14 06:00 UTC. Updated an hour ago

Ground ~20,000 ft ~40,000 ft Winds

OITT

Details ICAO OITT (TBZ)
Name TABRIZ INTL
Region Iran
Timezone Asia/Tehran (UTC+3.5)
Stats Elevation 4,459 ft / 1,359 m (AMSL)
Location 38.132990° 46.234937°
Runways 2
Magnetic Variation 5.632° E

METAR

OITT 140430Z 00000KT 5000 BR NSC M06/M08 Q1023 A3022

Decode

TAF

TAF OITT 131730Z 1318/1424 06004MPS 4000 BR HZ NSC BECMG 1408/1410 6000 TEMPO 1410/1415 21006MPS

Decode

Departure Runways

ID Width Length Bearing (true) Bearing (mag) Surface Threshold Offset Overrun Length
12L 148 ft / 45 m 11,818 ft / 3,602 m 129.05° 123.42° Asphalt 0 ft / 0 m 355 ft / 108 m
12R 98 ft / 30 m 11,531 ft / 3,515 m 128.97° 123.34° Asphalt 0 ft / 0 m 340 ft / 104 m
30L 98 ft / 30 m 11,531 ft / 3,515 m 308.99° 303.36° Asphalt 0 ft / 0 m 1,130 ft / 344 m
30R 148 ft / 45 m 11,818 ft / 3,602 m 309.07° 303.44° Asphalt 0 ft / 0 m 340 ft / 104 m

OIFM

Details ICAO OIFM
Name ESFAHAN SHAHID BEHESHTI INTL
Region Iran
Timezone Asia/Tehran (UTC+3.5)
Stats Elevation 5,059 ft / 1,542 m (AMSL)
Location 32.750857° 51.861286°
Runways 2
Magnetic Variation 3.939° E

METAR

OIFM 140430Z 00000KT CAVOK M05/M16 Q1022 A3020

Decode

TAF

TAF OIFM 131730Z 1318/1424 06004MPS 8000 NSC BECMG 1410/1412 12005MPS FEW035 SCT100 TEMPO 1415/1421 FEW035CB SCT040 SCT100

Decode

Destination Runways

ID Width Length Bearing (true) Bearing (mag) Surface Threshold Offset Overrun Length
08L 148 ft / 45 m 14,402 ft / 4,390 m 77.88° 73.94° Asphalt 0 ft / 0 m 1,188 ft / 362 m
08R 148 ft / 45 m 14,401 ft / 4,390 m 77.88° 73.94° Asphalt 0 ft / 0 m 1,184 ft / 361 m
26L 148 ft / 45 m 14,401 ft / 4,390 m 257.90° 253.96° Asphalt 0 ft / 0 m 1,181 ft / 360 m
26R 148 ft / 45 m 14,402 ft / 4,390 m 257.90° 253.96° Asphalt 0 ft / 0 m 1,184 ft / 361 m

Approach Navaids

Runway Type Ident Frequency Range Bearing (true) Bearing (mag) Slope Elevation
26R Localiser IIFN 109.90 MHz 18 nm / 33 km 257.89° 253.95° - 5,044 ft / 1,537 m (AMSL)
26R Glidescope IIFN 109.90 MHz 10 nm / 19 km 257.89° 253.95° 2.63° 5,057 ft / 1,541 m (AMSL)
26R DME IIFN 109.90 MHz 18 nm / 33 km - - - 5,041 ft / 1,536 m (AMSL)

Popular Alternatives